Trippe, Arkansas
Current Conditions -  °F | °C
As of 3:25 AM on Thursday 18 Dec 2014 (Local Time) from KLLQ Reporting Station
Light Rain Light Rain  
Wind Chill: 34°   Ceiling: 500
Heat Index: 40°   Visibility: 6mi
Dew Point: 38°   Wind: 9mph
Humidity: 93%   Direction: 80°E
Pressure: 30.21"   Gusts: NA
Location:  33.6386°N, 91.3646°W
Report Text: KLLQ 180925Z AUTO 08008KT 6SM -RA BR BKN005 OVC043 04/03 A3021 RMK AO2 P0002 T00440033
Loading
Personal Weather Stations






























Interactive Weather Map New forecast layout! Learn more

10-Day Weather Forecast

Advertisements
Track Severe Weather on mobile